Terminal Aerodrome Forecast
Issued by NWS

Home | Current Version | Previous Version | Text Only | Print | Product List | Glossary On
Versions: 1 2 3 4 5 6 7 8 9 10 11 12 13 14 15 16 17 18 19 20 21
373
FTUS41 KGYX 060536
TAFRKD
TAF
KRKD 060536Z 0606/0706 02009G20KT P6SM -RA BKN015 OVC024
     FM061200 36006KT 5SM -DZ BR OVC015
     FM061500 35009KT P6SM BKN050
     FM070200 07004KT P6SM OVC007
      AMD LTD TO CLD VIS AND WIND=

USA.gov is the U.S. government's official web portal to all federal, state and local government web resources and services.